Time;durP1;ratioP1;P1;durP2;ratioP2;P2;SDS_P1;SDS_P2;PMS_P1;PMS_P2;Temp;Humidity;BMP_temperature;BMP_pressure;BME280_temperature;BME280_humidity;BME280_pressure;Samples;Min_cycle;Max_cycle;Signal;HPM_P1;HPM_P2
2022/09/09 00:01:20;;;;;;;9.13;7.93;;;15.40;99.90;;;;;;4992530;28;20090;-55
2022/09/09 00:04:04;;;;;;;10.60;7.38;;;15.30;99.90;;;;;;5027427;28;20049;-55
2022/09/09 00:06:48;;;;;;;14.68;8.63;;;15.40;99.90;;;;;;5031776;28;20072;-55
2022/09/09 00:09:19;;;;;;;10.65;8.38;;;15.40;99.90;;;;;;5030222;28;20049;-55
2022/09/09 00:12:13;;;;;;;13.48;8.30;;;15.30;99.90;;;;;;5030203;28;20142;-55
2022/09/09 00:15:15;;;;;;;16.90;9.07;;;15.20;99.90;;;;;;4953269;29;20134;-55
2022/09/09 00:18:47;;;;;;;16.48;8.80;;;15.30;99.90;;;;;;4953145;29;20494;-55
2022/09/09 00:21:17;;;;;;;10.23;8.32;;;15.20;99.90;;;;;;4859254;29;20125;-55
2022/09/09 00:23:51;;;;;;;11.45;9.23;;;15.10;99.90;;;;;;4859347;29;20144;-55
2022/09/09 00:26:35;;;;;;;16.17;9.50;;;15.20;99.90;;;;;;4859250;29;20118;-56
2022/09/09 00:29:12;;;;;;;12.05;9.38;;;15.20;99.90;;;;;;4859325;29;20053;-56
2022/09/09 00:31:38;;;;;;;12.00;9.00;;;15.10;99.90;;;;;;4859194;29;20053;-55
2022/09/09 00:34:13;;;;;;;19.13;9.95;;;15.10;99.90;;;;;;4859215;29;20057;-55
2022/09/09 00:36:40;;;;;;;17.08;9.18;;;15.00;99.90;;;;;;4859086;29;20053;-56
2022/09/09 00:39:16;;;;;;;11.80;8.63;;;14.90;99.90;;;;;;4858112;29;20054;-56
2022/09/09 00:41:57;;;;;;;10.23;8.73;;;15.00;99.90;;;;;;4857598;29;20101;-56
2022/09/09 00:44:35;;;;;;;13.45;9.25;;;15.00;99.90;;;;;;4858495;29;20124;-56
2022/09/09 00:47:21;;;;;;;23.35;9.25;;;15.00;99.90;;;;;;4859092;29;20113;-56
2022/09/09 00:49:47;;;;;;;12.98;9.57;;;15.10;99.90;;;;;;4859101;29;20144;-56
2022/09/09 00:52:33;;;;;;;12.60;8.98;;;15.10;99.90;;;;;;4924662;29;20058;-56
2022/09/09 00:55:28;;;;;;;15.48;9.35;;;15.00;99.90;;;;;;4953074;29;20055;-56
2022/09/09 00:57:54;;;;;;;13.27;9.15;;;14.90;99.90;;;;;;5053125;28;20132;-56
2022/09/09 01:00:40;;;;;;;14.73;8.77;;;14.80;99.90;;;;;;5053558;28;20041;-56
2022/09/09 01:03:17;;;;;;;18.23;8.65;;;14.90;99.90;;;;;;4995589;28;20050;-56
2022/09/09 01:06:03;;;;;;;11.32;8.98;;;14.80;99.90;;;;;;4995639;28;20050;-56
2022/09/09 01:09:04;;;;;;;14.20;9.05;;;14.90;99.90;;;;;;4995630;28;20057;-56
2022/09/09 01:11:45;;;;;;;15.25;9.20;;;14.80;99.90;;;;;;4995642;28;20050;-56
2022/09/09 01:14:13;;;;;;;11.95;9.18;;;14.80;99.90;;;;;;4995435;28;20109;-56
2022/09/09 01:16:41;;;;;;;9.63;8.00;;;14.80;99.90;;;;;;4995441;28;20426;-56
2022/09/09 01:19:14;;;;;;;13.45;9.27;;;14.60;99.90;;;;;;4995730;28;20473;-56
2022/09/09 01:21:56;;;;;;;12.27;8.90;;;14.70;99.90;;;;;;4995097;28;20058;-56
2022/09/09 01:24:22;;;;;;;12.77;9.98;;;14.70;99.90;;;;;;4995396;28;20054;-55
2022/09/09 01:26:52;;;;;;;12.88;9.20;;;14.60;99.90;;;;;;4995203;28;20038;-55
2022/09/09 01:29:20;;;;;;;14.05;9.38;;;14.50;99.90;;;;;;4995187;28;20078;-55
2022/09/09 01:32:23;;;;;;;12.25;8.70;;;14.50;99.90;;;;;;4995149;28;20065;-55
2022/09/09 01:34:51;;;;;;;12.95;8.98;;;14.70;99.90;;;;;;4994947;28;20043;-55
2022/09/09 01:37:16;;;;;;;13.82;9.52;;;14.50;99.90;;;;;;4995024;28;20131;-55
2022/09/09 01:39:44;;;;;;;14.38;8.57;;;14.50;99.90;;;;;;5019592;28;20091;-55
2022/09/09 01:42:13;;;;;;;11.43;8.85;;;14.60;99.90;;;;;;5076123;28;20052;-55
2022/09/09 01:44:39;;;;;;;17.25;8.98;;;14.60;99.90;;;;;;5076310;28;20495;-55
2022/09/09 01:47:06;;;;;;;13.57;8.40;;;14.50;99.90;;;;;;5076304;28;20075;-55
2022/09/09 01:49:32;;;;;;;11.70;8.55;;;14.50;99.90;;;;;;5076361;28;20119;-56
2022/09/09 01:51:59;;;;;;;12.35;9.73;;;14.40;99.90;;;;;;5076047;28;20479;-55
2022/09/09 01:54:28;;;;;;;19.63;10.50;;;14.50;99.90;;;;;;5076068;28;20510;-55
2022/09/09 01:56:57;;;;;;;11.27;9.32;;;14.40;99.90;;;;;;5076226;28;20056;-55
2022/09/09 01:59:47;;;;;;;11.30;9.38;;;14.20;99.90;;;;;;5075903;28;20511;-55
2022/09/09 02:02:22;;;;;;;13.35;10.43;;;14.30;99.90;;;;;;5076099;28;20049;-55
2022/09/09 02:04:52;;;;;;;15.15;9.23;;;14.20;99.90;;;;;;5076017;28;20080;-55
2022/09/09 02:07:46;;;;;;;14.32;10.00;;;14.30;99.90;;;;;;5076054;28;20079;-55
2022/09/09 02:10:16;;;;;;;14.45;10.30;;;14.30;99.90;;;;;;5076013;28;20433;-55
2022/09/09 02:12:47;;;;;;;11.75;9.60;;;14.30;99.90;;;;;;5074790;28;20052;-54
2022/09/09 02:15:30;;;;;;;15.82;9.98;;;14.30;99.90;;;;;;5075661;28;20059;-55
2022/09/09 02:17:58;;;;;;;14.65;9.57;;;14.30;99.90;;;;;;5075850;28;20044;-55
2022/09/09 02:20:27;;;;;;;17.48;10.50;;;14.30;99.90;;;;;;5075578;28;20491;-56
2022/09/09 02:22:53;;;;;;;;;;;14.30;99.90;;;;;;5076231;28;20395;-55
2022/09/09 02:25:22;;;;;;;11.20;8.80;;;14.30;99.90;;;;;;5075609;28;19916;-55
2022/09/09 02:27:49;;;;;;;;;;;14.20;99.90;;;;;;5076081;28;20390;-55
2022/09/09 02:30:15;;;;;;;11.73;9.75;;;14.30;99.90;;;;;;5075629;28;20317;-55
2022/09/09 02:32:43;;;;;;;13.55;10.23;;;14.20;99.90;;;;;;5075458;28;20067;-55
2022/09/09 02:35:11;;;;;;;15.40;10.63;;;14.30;99.90;;;;;;5075616;28;20044;-56
2022/09/09 02:37:42;;;;;;;15.02;10.75;;;14.20;99.90;;;;;;5075516;28;20041;-56
2022/09/09 02:40:11;;;;;;;12.52;9.55;;;14.20;99.90;;;;;;5075120;28;20052;-56
2022/09/09 02:42:46;;;;;;;11.00;9.40;;;14.40;99.90;;;;;;5075284;28;20050;-56
2022/09/09 02:45:15;;;;;;;15.65;10.60;;;14.40;99.90;;;;;;5075067;28;20044;-56
2022/09/09 02:48:02;;;;;;;14.48;10.25;;;14.40;99.90;;;;;;5075165;28;20090;-56
2022/09/09 02:50:43;;;;;;;16.73;9.60;;;14.40;99.90;;;;;;5075167;28;20053;-56
2022/09/09 02:53:12;;;;;;;17.02;10.45;;;14.40;99.90;;;;;;5075059;28;20045;-56
2022/09/09 02:55:49;;;;;;;10.90;9.75;;;14.50;99.90;;;;;;5075112;28;20040;-56
2022/09/09 02:58:17;;;;;;;16.23;10.32;;;14.50;99.90;;;;;;5074993;28;20047;-56
2022/09/09 03:00:46;;;;;;;11.75;9.15;;;14.50;99.90;;;;;;5074692;28;20063;-56
2022/09/09 03:03:12;;;;;;;14.65;10.05;;;14.50;99.90;;;;;;5074827;28;20037;-56
2022/09/09 03:05:38;;;;;;;11.80;9.68;;;14.40;99.90;;;;;;5074679;28;20540;-56
2022/09/09 03:08:07;;;;;;;12.45;9.98;;;14.50;99.90;;;;;;5057203;28;20084;-56
2022/09/09 03:10:34;;;;;;;12.90;9.20;;;14.40;99.90;;;;;;5057096;28;20057;-56
2022/09/09 03:13:00;;;;;;;15.57;9.23;;;14.50;99.90;;;;;;5075305;28;20064;-56
2022/09/09 03:15:29;;;;;;;13.85;8.93;;;14.50;99.90;;;;;;5074523;28;20045;-56
2022/09/09 03:17:56;;;;;;;13.90;9.75;;;14.60;99.90;;;;;;5074567;28;20048;-57
2022/09/09 03:20:24;;;;;;;19.05;10.05;;;14.40;99.90;;;;;;5074534;28;20089;-56
2022/09/09 03:22:49;;;;;;;13.45;9.57;;;14.50;99.90;;;;;;5074416;28;20045;-56
2022/09/09 03:25:15;;;;;;;14.30;9.13;;;14.50;99.90;;;;;;5056360;28;20056;-56
2022/09/09 03:27:41;;;;;;;14.65;8.85;;;14.50;99.90;;;;;;5056691;28;20503;-56
2022/09/09 03:30:07;;;;;;;16.30;9.75;;;14.70;99.90;;;;;;5074321;28;20045;-56
2022/09/09 03:32:32;;;;;;;12.70;9.23;;;14.60;99.90;;;;;;5074880;28;20155;-56
2022/09/09 03:34:58;;;;;;;10.38;8.18;;;14.70;99.90;;;;;;5073984;28;20515;-55
2022/09/09 03:37:24;;;;;;;10.32;8.02;;;14.70;99.90;;;;;;5074256;28;20514;-56
2022/09/09 03:39:49;;;;;;;13.90;8.60;;;14.60;99.90;;;;;;5073856;28;20056;-56
2022/09/09 03:42:18;;;;;;;14.35;8.48;;;14.60;99.90;;;;;;5074091;28;20123;-55
2022/09/09 03:44:49;;;;;;;10.27;7.82;;;14.70;99.90;;;;;;5074124;28;20397;-56
2022/09/09 03:47:21;;;;;;;10.23;7.25;;;14.60;99.90;;;;;;5073962;28;20048;-56
2022/09/09 03:49:48;;;;;;;9.80;7.22;;;14.70;99.90;;;;;;5074081;28;20048;-56
2022/09/09 03:52:14;;;;;;;9.98;6.53;;;14.80;99.90;;;;;;5074074;28;20048;-56
2022/09/09 03:54:41;;;;;;;10.32;7.45;;;14.80;99.90;;;;;;5073985;28;20052;-56
2022/09/09 03:57:06;;;;;;;9.68;6.85;;;14.70;99.90;;;;;;5055767;28;20112;-56
2022/09/09 03:59:32;;;;;;;7.30;5.53;;;14.70;99.90;;;;;;5073855;28;20045;-56
2022/09/09 04:01:58;;;;;;;9.15;6.00;;;14.80;99.90;;;;;;5055891;28;20056;-56
2022/09/09 04:04:25;;;;;;;7.85;5.53;;;14.70;99.90;;;;;;5073897;28;20047;-56
2022/09/09 04:06:52;;;;;;;9.05;5.20;;;14.90;99.90;;;;;;5073647;28;20174;-57
2022/09/09 04:09:17;;;;;;;8.77;4.60;;;14.80;99.90;;;;;;5073861;28;20076;-56
2022/09/09 04:11:43;;;;;;;7.93;4.70;;;14.90;99.90;;;;;;5073633;28;20497;-56
2022/09/09 04:14:08;;;;;;;6.28;4.65;;;15.00;99.90;;;;;;5073808;28;20052;-56
2022/09/09 04:16:37;;;;;;;8.48;4.75;;;14.80;99.90;;;;;;5073588;28;20399;-56
2022/09/09 04:19:04;;;;;;;6.93;4.78;;;15.00;99.90;;;;;;5073712;28;20497;-56
2022/09/09 04:21:30;;;;;;;8.00;4.82;;;14.90;99.90;;;;;;5073639;28;20076;-56
2022/09/09 04:23:56;;;;;;;6.90;4.30;;;14.90;99.90;;;;;;5073629;28;20044;-56
2022/09/09 04:26:22;;;;;;;10.25;4.78;;;14.90;99.90;;;;;;5073475;28;20102;-56
2022/09/09 04:28:48;;;;;;;9.38;4.30;;;15.10;99.90;;;;;;5073591;28;20379;-56
2022/09/09 04:31:23;;;;;;;10.82;4.50;;;15.10;99.90;;;;;;5073567;28;20045;-56
2022/09/09 04:33:52;;;;;;;8.30;4.47;;;14.90;99.90;;;;;;5073360;28;20051;-55
2022/09/09 04:36:19;;;;;;;7.50;4.25;;;14.90;99.90;;;;;;5075609;28;20044;-56
2022/09/09 04:38:45;;;;;;;8.13;4.13;;;15.10;99.90;;;;;;5077367;28;20056;-55
2022/09/09 04:41:12;;;;;;;7.90;4.43;;;14.90;99.90;;;;;;5076710;28;20123;-55
2022/09/09 04:43:39;;;;;;;7.25;4.90;;;14.90;99.90;;;;;;5053710;28;20127;-54
2022/09/09 04:46:05;;;;;;;8.65;4.43;;;14.90;99.90;;;;;;5057529;28;20041;-55
2022/09/09 04:48:31;;;;;;;6.78;4.47;;;14.90;99.90;;;;;;5057330;28;20041;-55
2022/09/09 04:51:02;;;;;;;13.07;4.95;;;14.90;99.90;;;;;;5057192;28;20049;-55
2022/09/09 04:53:28;;;;;;;9.93;4.57;;;15.00;99.90;;;;;;5057192;28;20128;-56
2022/09/09 04:56:11;;;;;;;10.35;5.25;;;15.00;99.90;;;;;;5056345;28;20116;-55
2022/09/09 04:58:38;;;;;;;10.60;5.15;;;14.90;99.90;;;;;;5057080;28;20063;-55
2022/09/09 05:01:14;;;;;;;7.70;5.03;;;15.00;99.90;;;;;;5057150;28;20480;-55
2022/09/09 05:03:39;;;;;;;6.93;5.13;;;14.90;99.90;;;;;;5022578;28;20052;-55
2022/09/09 05:06:10;;;;;;;11.60;5.63;;;15.00;99.90;;;;;;5057163;28;20407;-56
2022/09/09 05:08:40;;;;;;;7.47;5.47;;;15.00;99.90;;;;;;5057131;28;20128;-55
2022/09/09 05:11:23;;;;;;;10.65;5.60;;;14.90;99.90;;;;;;5056955;28;20099;-55
2022/09/09 05:13:50;;;;;;;12.73;5.78;;;14.90;99.90;;;;;;5056745;28;20045;-55
2022/09/09 05:16:16;;;;;;;7.70;5.53;;;15.20;99.90;;;;;;5056934;28;20102;-55
2022/09/09 05:18:42;;;;;;;10.35;5.78;;;15.00;99.90;;;;;;5056935;28;20045;-55
2022/09/09 05:21:09;;;;;;;6.35;5.00;;;14.90;99.90;;;;;;5056833;28;20045;-55
2022/09/09 05:23:35;;;;;;;7.68;5.38;;;14.90;99.90;;;;;;5056846;28;20047;-55
2022/09/09 05:26:02;;;;;;;9.57;6.90;;;15.00;99.90;;;;;;5055705;28;20124;-55
2022/09/09 05:28:28;;;;;;;10.00;6.82;;;15.10;99.90;;;;;;5054528;28;20124;-54
2022/09/09 05:31:04;;;;;;;11.50;6.68;;;14.90;99.90;;;;;;5055254;28;20049;-56
2022/09/09 05:33:31;;;;;;;11.40;6.65;;;15.10;99.90;;;;;;5056621;28;20098;-55
2022/09/09 05:36:02;;;;;;;9.98;7.00;;;15.00;99.90;;;;;;5056639;28;20081;-55
2022/09/09 05:38:29;;;;;;;10.10;6.63;;;15.00;99.90;;;;;;5059288;28;20075;-55
2022/09/09 05:40:56;;;;;;;9.50;6.45;;;15.00;99.90;;;;;;5076409;28;20044;-55
2022/09/09 05:43:23;;;;;;;12.73;8.40;;;15.00;99.90;;;;;;5076439;28;20044;-55
2022/09/09 05:45:59;;;;;;;8.30;7.43;;;15.00;99.90;;;;;;5076429;28;20340;-55
2022/09/09 05:48:28;;;;;;;12.85;7.53;;;14.90;99.90;;;;;;5076277;28;20090;-55
2022/09/09 05:50:54;;;;;;;12.07;7.93;;;15.00;99.90;;;;;;5076236;28;20055;-57
2022/09/09 05:53:20;;;;;;;13.88;8.65;;;15.00;99.90;;;;;;5076253;28;20044;-55
2022/09/09 05:55:46;;;;;;;11.23;7.38;;;14.90;99.90;;;;;;5076119;28;20052;-55
2022/09/09 05:58:11;;;;;;;12.82;8.10;;;15.00;99.90;;;;;;5076172;28;20055;-55
2022/09/09 06:00:37;;;;;;;10.07;8.40;;;15.10;99.90;;;;;;5076244;28;20079;-55
2022/09/09 06:03:03;;;;;;;12.52;9.32;;;14.90;99.90;;;;;;5076041;28;20079;-57
2022/09/09 06:05:30;;;;;;;15.73;8.90;;;15.10;99.90;;;;;;5076057;28;20049;-55
2022/09/09 06:07:55;;;;;;;12.38;8.57;;;14.90;99.90;;;;;;5075964;28;20044;-55
2022/09/09 06:10:21;;;;;;;8.75;7.35;;;15.10;99.90;;;;;;5075977;28;20136;-55
2022/09/09 06:12:47;;;;;;;10.07;8.68;;;15.00;99.90;;;;;;5075752;28;20049;-55
2022/09/09 06:15:13;;;;;;;13.88;8.43;;;15.00;99.90;;;;;;5076033;28;20133;-56
2022/09/09 06:17:38;;;;;;;13.82;8.85;;;15.10;99.90;;;;;;5075754;28;20091;-54
2022/09/09 06:20:05;;;;;;;11.77;9.68;;;15.00;99.90;;;;;;5075688;28;20044;-55
2022/09/09 06:22:31;;;;;;;10.88;8.00;;;15.20;99.90;;;;;;5075699;28;20055;-55
2022/09/09 06:24:56;;;;;;;13.00;9.48;;;15.00;99.90;;;;;;5075710;28;20391;-55
2022/09/09 06:27:22;;;;;;;11.68;9.55;;;15.10;99.90;;;;;;5075692;28;20047;-56
2022/09/09 06:29:48;;;;;;;9.95;8.02;;;15.20;99.90;;;;;;5075819;28;20364;-55
2022/09/09 06:32:14;;;;;;;9.45;7.82;;;15.10;99.90;;;;;;5075481;28;20059;-56
2022/09/09 06:34:39;;;;;;;11.32;8.80;;;15.30;99.90;;;;;;5075494;28;20083;-55
2022/09/09 06:37:06;;;;;;;11.27;8.90;;;15.30;99.90;;;;;;5075695;28;20127;-56
2022/09/09 06:39:32;;;;;;;8.43;7.63;;;15.30;99.90;;;;;;5075212;28;20106;-55
2022/09/09 06:41:58;;;;;;;9.38;7.63;;;15.10;99.90;;;;;;5075298;28;20060;-55
2022/09/09 06:44:26;;;;;;;11.48;8.32;;;15.30;99.90;;;;;;5075309;28;20049;-55
2022/09/09 06:46:52;;;;;;;8.00;7.20;;;15.30;99.90;;;;;;5075187;28;20448;-56
2022/09/09 06:49:18;;;;;;;11.43;8.07;;;15.40;99.90;;;;;;5075168;28;20048;-56
2022/09/09 06:51:44;;;;;;;10.15;7.75;;;15.30;99.90;;;;;;5075932;28;20055;-55
2022/09/09 06:54:11;;;;;;;14.70;8.27;;;15.40;99.90;;;;;;5074730;28;20127;-55
2022/09/09 06:56:41;;;;;;;12.13;7.47;;;15.50;99.90;;;;;;5075090;28;20041;-56
2022/09/09 06:59:09;;;;;;;10.88;7.45;;;15.50;99.90;;;;;;5056008;28;20056;-55
2022/09/09 07:01:40;;;;;;;10.48;8.13;;;15.50;99.90;;;;;;5074765;28;20067;-56
2022/09/09 07:04:07;;;;;;;10.02;7.47;;;15.60;99.90;;;;;;5075004;28;20141;-55
2022/09/09 07:06:53;;;;;;;9.40;7.50;;;15.50;99.90;;;;;;5075134;28;20101;-55
2022/09/09 07:09:20;;;;;;;11.23;8.10;;;15.60;99.90;;;;;;5073268;28;20049;-55
2022/09/09 07:11:48;;;;;;;8.32;7.43;;;15.50;99.90;;;;;;5073210;28;20056;-54
2022/09/09 07:14:15;;;;;;;9.88;7.57;;;15.70;99.90;;;;;;5074118;28;20045;-55
2022/09/09 07:16:42;;;;;;;8.52;6.65;;;15.60;99.90;;;;;;5056519;28;20082;-55
2022/09/09 07:19:07;;;;;;;8.55;6.63;;;15.60;99.90;;;;;;5074314;28;20497;-55
2022/09/09 07:21:33;;;;;;;8.43;7.43;;;15.70;99.90;;;;;;5074510;28;20123;-55
2022/09/09 07:24:00;;;;;;;8.60;7.25;;;15.80;99.90;;;;;;5074525;28;20059;-56
2022/09/09 07:26:27;;;;;;;7.45;5.97;;;15.70;99.90;;;;;;5074420;28;20056;-64
2022/09/09 07:28:53;;;;;;;11.97;6.87;;;15.60;99.90;;;;;;5074475;28;20079;-64
2022/09/09 07:31:32;;;;;;;9.88;6.70;;;15.60;99.90;;;;;;5056569;28;20076;-64
2022/09/09 07:33:59;;;;;;;9.05;7.22;;;15.80;99.90;;;;;;5074427;28;20047;-64
2022/09/09 07:36:27;;;;;;;8.95;6.70;;;15.80;99.90;;;;;;5074420;28;20434;-63
2022/09/09 07:39:08;;;;;;;8.38;5.88;;;15.80;99.90;;;;;;5073718;28;20103;-63
2022/09/09 07:41:38;;;;;;;10.05;6.80;;;15.90;99.90;;;;;;5074230;28;20131;-64
2022/09/09 07:44:10;;;;;;;12.18;6.03;;;15.90;99.90;;;;;;5074104;28;20053;-64
2022/09/09 07:46:39;;;;;;;7.63;6.93;;;15.90;99.90;;;;;;5074300;28;20048;-64
2022/09/09 07:49:05;;;;;;;6.65;5.90;;;16.00;99.90;;;;;;5074103;28;20048;-64
2022/09/09 07:51:34;;;;;;;8.50;6.72;;;16.10;99.90;;;;;;5074055;28;20040;-64
2022/09/09 07:54:04;;;;;;;;;;;16.20;99.90;;;;;;5074504;28;20048;-64
2022/09/09 07:56:31;;;;;;;7.88;5.88;;;16.20;99.90;;;;;;5074090;28;19970;-64
2022/09/09 07:58:58;;;;;;;8.70;5.82;;;16.30;99.90;;;;;;5073858;28;20056;-64
2022/09/09 08:01:32;;;;;;;10.90;6.20;;;16.40;99.90;;;;;;5073923;28;20049;-56
2022/09/09 08:04:04;;;;;;;7.35;6.00;;;16.50;99.90;;;;;;5073910;28;20055;-64
2022/09/09 08:06:34;;;;;;;6.72;5.57;;;16.70;99.90;;;;;;5073653;28;20055;-56
2022/09/09 08:09:00;;;;;;;6.60;5.25;;;16.70;99.90;;;;;;5073871;28;20182;-56
2022/09/09 08:11:28;;;;;;;9.85;6.47;;;16.80;99.90;;;;;;5072915;28;20080;-57
2022/09/09 08:13:54;;;;;;;7.03;5.80;;;16.90;99.90;;;;;;5073985;28;20071;-57
2022/09/09 08:16:25;;;;;;;6.28;4.82;;;17.00;99.90;;;;;;5073843;28;20224;-56
2022/09/09 08:18:53;;;;;;;9.82;5.72;;;17.30;99.90;;;;;;5073453;28;20074;-55
2022/09/09 08:21:23;;;;;;;6.70;5.03;;;17.60;99.90;;;;;;5073281;28;20053;-55
2022/09/09 08:23:52;;;;;;;10.13;5.00;;;17.80;99.90;;;;;;5073725;28;20629;-63
2022/09/09 08:26:22;;;;;;;;;;;17.90;99.90;;;;;;5055699;28;20056;-63
2022/09/09 08:28:51;;;;;;;8.02;5.05;;;18.00;99.90;;;;;;5073598;28;19916;-63
2022/09/09 08:31:20;;;;;;;7.72;4.15;;;18.00;99.90;;;;;;5073608;28;20049;-62
2022/09/09 08:33:46;;;;;;;7.07;4.90;;;18.10;99.90;;;;;;5073520;28;20461;-63
2022/09/09 08:36:17;;;;;;;7.32;4.28;;;18.40;99.90;;;;;;5073589;28;20105;-63
2022/09/09 08:38:46;;;;;;;6.53;4.25;;;18.40;99.90;;;;;;5073384;28;20060;-63
2022/09/09 08:41:33;;;;;;;7.22;3.72;;;18.40;99.90;;;;;;5073504;28;20052;-63
2022/09/09 08:44:25;;;;;;;7.03;4.50;;;18.20;99.90;;;;;;5073480;28;20071;-64
2022/09/09 08:47:04;;;;;;;6.88;4.30;;;18.20;99.90;;;;;;5073545;28;20052;-64
2022/09/09 08:49:55;;;;;;;7.22;3.95;;;18.30;99.90;;;;;;5073344;28;20540;-64
2022/09/09 08:52:30;;;;;;;7.53;4.60;;;18.20;99.90;;;;;;5073380;28;20075;-63
2022/09/09 08:55:24;;;;;;;7.10;3.97;;;18.20;99.90;;;;;;5073334;28;20051;-63
2022/09/09 08:57:52;;;;;;;8.25;4.40;;;18.20;99.90;;;;;;5072667;28;20079;-64
2022/09/09 09:00:19;;;;;;;5.35;3.47;;;18.10;99.90;;;;;;5073382;28;20053;-64
2022/09/09 09:03:26;;;;;;;4.93;3.78;;;18.10;99.90;;;;;;5073252;28;20067;-64
2022/09/09 09:06:06;;;;;;;10.07;4.30;;;18.10;99.90;;;;;;4991895;28;20100;-64
2022/09/09 09:08:54;;;;;;;6.20;3.72;;;18.30;99.90;;;;;;4990781;28;20441;-63
2022/09/09 09:11:20;;;;;;;8.63;3.95;;;18.30;99.90;;;;;;4990056;28;20425;-64
2022/09/09 09:14:02;;;;;;;9.43;4.53;;;18.30;99.90;;;;;;4991769;28;20069;-64
2022/09/09 09:16:35;;;;;;;6.55;3.97;;;18.40;99.90;;;;;;4991668;28;20058;-64
2022/09/09 09:19:01;;;;;;;8.43;3.83;;;18.40;99.90;;;;;;4991897;28;20051;-63
2022/09/09 09:21:43;;;;;;;8.73;4.35;;;18.50;99.90;;;;;;4992075;28;20046;-63
2022/09/09 09:24:25;;;;;;;8.70;3.97;;;18.60;99.90;;;;;;4995467;28;20051;-64
2022/09/09 09:26:52;;;;;;;12.50;3.97;;;18.50;99.90;;;;;;4995637;28;20129;-63
2022/09/09 09:29:19;;;;;;;4.53;3.33;;;18.70;99.90;;;;;;4995306;28;20050;-63
2022/09/09 09:31:52;;;;;;;10.30;3.88;;;18.70;99.90;;;;;;4995142;28;20054;-63
2022/09/09 09:34:17;;;;;;;5.47;3.72;;;18.90;99.90;;;;;;4995085;28;20057;-63
2022/09/09 09:36:51;;;;;;;7.38;4.00;;;19.00;99.90;;;;;;4995115;28;20043;-63
2022/09/09 09:39:30;;;;;;;9.80;3.78;;;19.00;99.90;;;;;;4993845;28;20050;-63
2022/09/09 09:41:57;;;;;;;7.90;3.22;;;19.00;99.90;;;;;;5004818;28;20081;-64
2022/09/09 09:44:29;;;;;;;9.40;3.42;;;18.80;99.90;;;;;;5076469;28;20040;-63
2022/09/09 09:47:06;;;;;;;6.63;3.10;;;19.00;99.90;;;;;;5076497;28;20071;-63
2022/09/09 09:49:33;;;;;;;8.30;2.75;;;19.10;99.90;;;;;;5076404;28;20041;-63
2022/09/09 09:52:03;;;;;;;7.53;2.67;;;19.10;99.90;;;;;;5058517;28;20052;-63
2022/09/09 09:54:32;;;;;;;9.82;3.22;;;19.20;99.90;;;;;;5076231;28;20098;-63
2022/09/09 09:57:11;;;;;;;11.63;2.88;;;19.10;99.90;;;;;;5076292;28;20075;-63
2022/09/09 09:59:39;;;;;;;12.70;3.28;;;19.20;99.90;;;;;;5076398;28;20439;-63
2022/09/09 10:02:16;;;;;;;9.25;3.90;;;19.10;99.90;;;;;;5076167;28;20048;-63
2022/09/09 10:04:41;;;;;;;8.10;3.58;;;19.10;99.90;;;;;;5075909;28;20044;-63
2022/09/09 10:07:22;;;;;;;8.27;3.20;;;19.00;99.90;;;;;;5075991;28;20090;-63
2022/09/09 10:09:54;;;;;;;7.20;2.90;;;19.00;99.90;;;;;;5076191;28;20048;-63
2022/09/09 10:12:44;;;;;;;13.75;3.38;;;18.90;99.90;;;;;;5075619;28;20506;-63
2022/09/09 10:15:38;;;;;;;12.88;3.35;;;18.80;99.90;;;;;;5075797;28;20049;-63
2022/09/09 10:18:32;;;;;;;8.35;2.85;;;18.80;99.90;;;;;;5075890;28;20052;-63
2022/09/09 10:21:12;;;;;;;10.88;2.58;;;18.80;99.90;;;;;;5075312;28;20141;-63
2022/09/09 10:24:10;;;;;;;9.00;2.47;;;18.70;99.90;;;;;;5075649;28;20036;-63
2022/09/09 10:27:05;;;;;;;10.43;3.00;;;18.70;99.90;;;;;;5075664;28;20098;-63
2022/09/09 10:29:34;;;;;;;7.43;2.15;;;18.70;99.90;;;;;;4994120;28;20065;-63
2022/09/09 10:32:02;;;;;;;10.05;2.22;;;18.90;99.90;;;;;;4994007;28;20049;-63
2022/09/09 10:34:57;;;;;;;8.73;2.30;;;19.10;99.90;;;;;;4992945;28;20057;-63
2022/09/09 10:37:42;;;;;;;7.88;2.08;;;19.30;99.90;;;;;;4978055;28;20063;-63
2022/09/09 10:40:24;;;;;;;10.27;2.00;;;19.50;99.90;;;;;;4993416;28;20102;-63
2022/09/09 10:42:50;;;;;;;7.00;1.35;;;19.70;99.90;;;;;;4993988;28;20057;-63
2022/09/09 10:45:24;;;;;;;10.30;2.50;;;19.90;99.90;;;;;;4994050;28;20054;-63
2022/09/09 10:47:49;;;;;;;9.95;1.90;;;20.00;99.90;;;;;;4993682;28;20042;-62
2022/09/09 10:50:39;;;;;;;6.28;1.67;;;20.10;99.90;;;;;;4993823;28;20512;-62
2022/09/09 10:53:45;;;;;;;8.35;2.63;;;20.40;99.90;;;;;;4993730;28;20128;-62
2022/09/09 10:56:15;;;;;;;6.18;1.42;;;20.60;99.90;;;;;;4977607;28;20594;-62
2022/09/09 10:59:06;;;;;;;6.28;1.92;;;20.60;99.90;;;;;;4993587;28;20050;-62
2022/09/09 11:01:41;;;;;;;8.63;1.80;;;20.40;99.90;;;;;;4973992;28;20513;-56
2022/09/09 11:04:37;;;;;;;5.10;1.75;;;20.30;99.90;;;;;;4974100;28;20050;-56
2022/09/09 11:07:08;;;;;;;5.30;1.42;;;20.40;99.90;;;;;;5031271;28;20061;-56
2022/09/09 11:09:39;;;;;;;4.18;1.33;;;20.60;99.90;;;;;;5031131;28;20049;-56
2022/09/09 11:12:10;;;;;;;7.80;1.88;;;20.70;99.90;;;;;;5031795;28;20061;-55
2022/09/09 11:14:47;;;;;;;7.55;1.63;;;20.60;99.90;;;;;;4999301;28;20095;-56
2022/09/09 11:17:18;;;;;;;5.18;1.33;;;20.60;99.90;;;;;;5032880;28;20060;-56
2022/09/09 11:19:44;;;;;;;5.82;1.70;;;20.70;99.90;;;;;;5032649;28;20049;-57
2022/09/09 11:22:29;;;;;;;8.00;1.30;;;20.90;99.90;;;;;;5032536;28;20524;-56
2022/09/09 11:25:25;;;;;;;5.55;1.95;;;21.20;99.90;;;;;;5032351;28;20045;-57
2022/09/09 11:28:07;;;;;;;6.28;1.35;;;21.40;99.90;;;;;;5032306;28;20077;-55
2022/09/09 11:30:54;;;;;;;4.50;1.48;;;21.70;99.90;;;;;;5032385;28;20499;-56
2022/09/09 11:33:58;;;;;;;6.63;2.30;;;21.90;99.90;;;;;;5032097;28;20049;-54
2022/09/09 11:36:44;;;;;;;6.03;1.55;;;22.10;99.90;;;;;;5032246;28;20088;-55
2022/09/09 11:39:13;;;;;;;4.95;0.95;;;22.30;99.90;;;;;;5063583;28;20056;-63
2022/09/09 11:41:39;;;;;;;;;;;22.40;99.90;;;;;;5074616;28;20131;-63
2022/09/09 11:44:16;;;;;;;4.63;1.63;;;22.50;99.90;;;;;;5073978;28;20004;-63
2022/09/09 11:46:50;;;;;;;7.07;1.35;;;22.70;99.90;;;;;;5074085;28;20048;-62
2022/09/09 11:49:41;;;;;;;7.72;1.90;;;22.80;99.90;;;;;;5073937;28;20059;-63
2022/09/09 11:52:42;;;;;;;4.43;1.30;;;22.70;99.90;;;;;;5074094;28;20137;-63
2022/09/09 11:55:25;;;;;;;8.63;1.60;;;22.60;99.90;;;;;;5074468;28;20053;-63
2022/09/09 11:57:59;;;;;;;3.88;1.48;;;22.30;99.90;;;;;;5074031;28;20044;-63
2022/09/09 12:00:36;;;;;;;6.13;1.63;;;22.20;99.90;;;;;;5073816;28;20059;-64
2022/09/09 12:03:26;;;;;;;5.97;1.52;;;22.50;99.90;;;;;;5073911;28;20059;-63
2022/09/09 12:05:53;;;;;;;6.83;1.50;;;22.40;99.90;;;;;;5073685;28;20051;-64
2022/09/09 12:08:27;;;;;;;7.05;1.15;;;22.20;99.90;;;;;;5074173;28;20119;-63
2022/09/09 12:10:55;;;;;;;6.72;1.58;;;21.90;99.90;;;;;;5073856;28;20426;-64
2022/09/09 12:13:23;;;;;;;4.85;1.70;;;21.70;99.90;;;;;;5073802;28;20097;-64
2022/09/09 12:15:53;;;;;;;7.75;1.70;;;21.70;99.90;;;;;;5073821;28;20052;-64
2022/09/09 12:18:33;;;;;;;7.55;1.90;;;21.60;99.90;;;;;;5073645;28;20086;-65
2022/09/09 12:21:39;;;;;;;6.68;1.50;;;21.80;99.90;;;;;;5073689;28;20037;-64
2022/09/09 12:24:11;;;;;;;5.72;1.40;;;21.80;99.90;;;;;;5073756;28;20041;-64
2022/09/09 12:26:55;;;;;;;6.97;1.90;;;21.80;99.90;;;;;;5073465;28;20116;-65
2022/09/09 12:29:45;;;;;;;8.07;1.70;;;21.80;99.90;;;;;;5073632;28;20044;-65
2022/09/09 12:32:17;;;;;;;7.57;1.42;;;21.80;99.90;;;;;;5073678;28;20399;-65
2022/09/09 12:34:51;;;;;;;4.88;1.30;;;21.60;99.90;;;;;;5073786;28;20080;-65
2022/09/09 12:37:51;;;;;;;4.88;1.25;;;21.50;99.90;;;;;;5073131;28;20045;-64
2022/09/09 12:40:21;;;;;;;3.60;1.10;;;21.40;99.90;;;;;;5071644;28;20540;-65
2022/09/09 12:42:50;;;;;;;8.35;1.85;;;21.40;99.90;;;;;;5072161;28;20048;-64
2022/09/09 12:45:21;;;;;;;4.10;1.20;;;21.30;99.90;;;;;;5073375;28;20048;-64
2022/09/09 12:48:11;;;;;;;8.70;1.80;;;21.40;99.90;;;;;;5073423;28;20036;-64
2022/09/09 12:51:05;;;;;;;7.00;1.50;;;21.30;99.90;;;;;;5073451;28;20493;-63
2022/09/09 12:53:36;;;;;;;14.27;1.45;;;21.10;99.90;;;;;;5070438;28;20059;-64
2022/09/09 12:56:07;;;;;;;4.28;1.35;;;21.20;99.90;;;;;;5072898;28;20044;-64
2022/09/09 12:58:33;;;;;;;5.68;1.20;;;21.50;99.90;;;;;;5077378;28;20056;-64
2022/09/09 13:01:00;;;;;;;7.05;1.60;;;21.60;99.90;;;;;;5077204;28;20044;-64
2022/09/09 13:03:26;;;;;;;6.13;1.50;;;21.50;99.90;;;;;;5077168;28;20132;-63
2022/09/09 13:05:54;;;;;;;9.80;1.40;;;21.50;99.90;;;;;;5077247;28;20443;-64
2022/09/09 13:08:22;;;;;;;8.23;1.42;;;21.50;99.90;;;;;;5076445;28;20086;-64
2022/09/09 13:10:54;;;;;;;5.03;1.60;;;21.50;99.90;;;;;;5077238;28;20044;-64
2022/09/09 13:13:26;;;;;;;9.63;1.38;;;21.40;99.90;;;;;;5076043;28;20040;-65